createdAt,value
2019-01-22T00:01:24.883Z,0.00
2019-01-22T00:02:56.676Z,0.00
2019-01-22T00:04:28.493Z,0.00
2019-01-22T00:06:00.309Z,0.00
2019-01-22T00:07:32.125Z,0.00
2019-01-22T00:09:03.969Z,0.00
2019-01-22T00:10:35.763Z,0.00
2019-01-22T00:12:07.576Z,0.00
2019-01-22T00:13:39.393Z,0.00
2019-01-22T00:15:11.212Z,0.00
2019-01-22T00:16:43.127Z,0.00
2019-01-22T00:18:14.882Z,0.00
2019-01-22T00:19:46.747Z,0.00
2019-01-22T00:21:18.479Z,0.00
2019-01-22T00:22:50.294Z,0.00
2019-01-22T00:24:22.123Z,0.00
2019-01-22T00:25:53.956Z,0.00
2019-01-22T00:27:25.754Z,0.00
2019-01-22T00:28:57.563Z,0.00
2019-01-22T00:30:29.387Z,0.00
2019-01-22T00:32:01.301Z,0.00
2019-01-22T00:33:33.014Z,0.00
2019-01-22T00:35:04.931Z,0.00
2019-01-22T00:36:36.648Z,0.00
2019-01-22T00:38:08.466Z,0.00
2019-01-22T00:39:40.282Z,0.00
2019-01-22T00:41:12.099Z,0.00
2019-01-22T00:42:43.919Z,0.00
2019-01-22T00:44:15.736Z,0.00
2019-01-22T00:45:47.767Z,0.00
2019-01-22T00:47:19.368Z,0.00
2019-01-22T00:48:51.183Z,0.00
2019-01-22T00:50:23.002Z,0.00
2019-01-22T00:51:54.818Z,0.00
2019-01-22T00:53:26.734Z,0.00
2019-01-22T00:54:58.451Z,0.00
2019-01-22T00:56:30.268Z,0.00
2019-01-22T00:58:02.087Z,0.00
2019-01-22T00:59:33.903Z,0.00
2019-01-22T01:01:05.720Z,0.00
2019-01-22T01:02:37.663Z,0.00
2019-01-22T01:04:09.353Z,0.00
2019-01-22T01:05:41.421Z,0.00
2019-01-22T01:07:12.987Z,0.00
2019-01-22T01:08:44.806Z,0.00
2019-01-22T01:10:16.626Z,0.00
2019-01-22T01:11:48.538Z,0.00
2019-01-22T01:13:20.254Z,0.00
2019-01-22T01:14:52.072Z,0.00
2019-01-22T01:16:23.888Z,0.00
2019-01-22T01:17:55.706Z,0.00
2019-01-22T01:19:27.523Z,0.00
2019-01-22T01:20:59.339Z,0.00
2019-01-22T01:22:31.156Z,0.00
2019-01-22T01:24:02.982Z,0.00
2019-01-22T01:25:34.791Z,0.00
2019-01-22T01:27:06.607Z,0.00
2019-01-22T01:28:38.425Z,0.00
2019-01-22T01:30:10.592Z,0.00
2019-01-22T01:31:42.061Z,0.00
2019-01-22T01:33:13.877Z,0.00
2019-01-22T01:34:45.695Z,0.00
2019-01-22T01:36:17.763Z,0.00
2019-01-22T01:37:49.330Z,0.00
2019-01-22T01:39:21.144Z,0.00
2019-01-22T01:40:52.982Z,0.00
2019-01-22T01:42:24.780Z,0.00
2019-01-22T01:43:56.596Z,0.00
2019-01-22T01:45:28.413Z,0.00
2019-01-22T01:47:00.230Z,0.00
2019-01-22T01:48:32.147Z,0.00
2019-01-22T01:50:03.864Z,0.00
2019-01-22T01:51:35.702Z,0.00
2019-01-22T01:53:07.498Z,0.00
2019-01-22T01:54:39.317Z,0.00
2019-01-22T01:56:11.133Z,0.00
2019-01-22T01:57:42.991Z,0.00
2019-01-22T01:59:14.770Z,0.00
2019-01-22T02:00:46.583Z,0.00
2019-01-22T02:02:18.402Z,0.00
2019-01-22T02:05:22.083Z,0.00
2019-01-22T02:06:54.264Z,0.00
2019-01-22T02:08:25.668Z,0.00
2019-01-22T02:09:57.485Z,0.00
2019-01-22T02:11:29.302Z,0.00
2019-01-22T02:13:01.121Z,0.00
2019-01-22T02:14:32.937Z,0.00
2019-01-22T02:16:04.753Z,0.00
2019-01-22T02:17:36.615Z,0.00
2019-01-22T02:19:08.387Z,0.00
2019-01-22T02:20:40.205Z,0.00
2019-01-22T02:22:12.021Z,0.00
2019-01-22T02:23:43.844Z,0.00
2019-01-22T02:25:15.763Z,0.00
2019-01-22T02:26:47.472Z,0.00
2019-01-22T02:28:19.290Z,0.00
2019-01-22T02:29:51.121Z,0.00
2019-01-22T02:31:22.941Z,0.00
2019-01-22T02:32:54.741Z,0.00
2019-01-22T02:34:26.557Z,0.00
2019-01-22T02:35:58.392Z,0.00
2019-01-22T02:37:30.440Z,0.00
2019-01-22T02:39:02.034Z,0.00
2019-01-22T02:40:33.831Z,0.00
2019-01-22T02:42:05.666Z,0.00
2019-01-22T02:43:37.557Z,0.00
2019-01-22T02:45:09.306Z,0.00
2019-01-22T02:46:41.129Z,0.00
2019-01-22T02:48:12.907Z,0.00
2019-01-22T02:49:44.724Z,0.00
2019-01-22T02:51:16.543Z,0.00
2019-01-22T02:52:48.363Z,0.00
2019-01-22T02:54:20.193Z,0.00
2019-01-22T02:55:51.990Z,0.00
2019-01-22T02:57:23.808Z,0.00
2019-01-22T02:58:55.623Z,0.00
2019-01-22T03:00:27.440Z,0.00
2019-01-22T03:01:59.365Z,0.00
2019-01-22T03:03:31.074Z,0.00
2019-01-22T03:05:02.900Z,0.00
2019-01-22T03:06:34.752Z,0.00
2019-01-22T03:08:06.775Z,0.00
2019-01-22T03:09:38.341Z,0.00
2019-01-22T03:11:10.158Z,0.00
2019-01-22T03:12:41.974Z,0.00
2019-01-22T03:14:13.791Z,0.00
2019-01-22T03:15:45.607Z,0.00
2019-01-22T03:17:17.423Z,0.00
2019-01-22T03:18:49.241Z,0.00
2019-01-22T03:20:21.158Z,0.00
2019-01-22T03:21:52.873Z,0.00
2019-01-22T03:23:24.693Z,0.00
2019-01-22T03:24:56.505Z,0.00
2019-01-22T03:26:28.322Z,0.00
2019-01-22T03:28:00.139Z,0.00
2019-01-22T03:29:31.954Z,0.00
2019-01-22T03:31:03.772Z,0.00
2019-01-22T03:32:35.590Z,0.00
2019-01-22T03:34:07.444Z,0.00
2019-01-22T03:35:39.221Z,0.00
2019-01-22T03:37:11.065Z,0.00
2019-01-22T03:38:43.207Z,0.00
2019-01-22T03:40:14.669Z,0.00
2019-01-22T03:41:46.511Z,0.00
2019-01-22T03:43:18.303Z,0.00
2019-01-22T03:44:50.127Z,0.00
2019-01-22T03:46:21.936Z,0.00
2019-01-22T03:47:53.752Z,0.00
2019-01-22T03:49:25.568Z,0.00
2019-01-22T03:50:57.405Z,0.00
2019-01-22T03:52:29.203Z,0.00
2019-01-22T03:54:01.017Z,0.00
2019-01-22T03:55:32.854Z,0.00
2019-01-22T03:57:04.752Z,0.00
2019-01-22T03:58:36.470Z,0.00
2019-01-22T04:00:08.301Z,0.00
2019-01-22T04:01:40.101Z,0.00
2019-01-22T04:03:11.915Z,0.00
2019-01-22T04:04:43.731Z,0.00
2019-01-22T04:06:15.547Z,0.00
2019-01-22T04:07:47.363Z,0.00
2019-01-22T04:09:19.429Z,0.00
2019-01-22T04:10:51.009Z,0.00
2019-01-22T04:12:22.816Z,0.00
2019-01-22T04:13:54.635Z,0.00
2019-01-22T04:15:26.543Z,0.00
2019-01-22T04:16:58.279Z,0.00
2019-01-22T04:18:30.078Z,0.00
2019-01-22T04:20:01.894Z,0.00
2019-01-22T04:21:33.707Z,0.00
2019-01-22T04:23:05.529Z,0.00
2019-01-22T04:24:37.340Z,0.00
2019-01-22T04:26:09.156Z,0.00
2019-01-22T04:27:40.971Z,0.00
2019-01-22T04:29:12.790Z,0.00
2019-01-22T04:30:44.603Z,0.00
2019-01-22T04:32:16.420Z,0.00
2019-01-22T04:33:49.272Z,0.00
2019-01-22T04:35:20.051Z,0.00
2019-01-22T04:36:51.868Z,0.00
2019-01-22T04:38:23.685Z,0.00
2019-01-22T04:39:55.752Z,0.00
2019-01-22T04:41:27.315Z,0.00
2019-01-22T04:42:59.132Z,0.00
2019-01-22T04:44:30.948Z,0.00
2019-01-22T04:46:02.769Z,0.00
2019-01-22T04:47:34.580Z,0.00
2019-01-22T04:49:06.396Z,0.00
2019-01-22T04:50:38.212Z,0.00
2019-01-22T04:52:10.128Z,0.00
2019-01-22T04:53:41.843Z,0.00
2019-01-22T04:55:13.659Z,0.00
2019-01-22T04:56:45.475Z,0.00
2019-01-22T04:58:17.292Z,0.00
2019-01-22T04:59:49.108Z,0.00
2019-01-22T05:01:20.925Z,0.00
2019-01-22T05:02:52.741Z,0.00
2019-01-22T05:04:24.557Z,0.00
2019-01-22T05:05:56.372Z,0.00
2019-01-22T05:07:28.187Z,0.00
2019-01-22T05:09:00.007Z,0.00
2019-01-22T05:10:31.923Z,0.00
2019-01-22T05:12:03.635Z,0.00
2019-01-22T05:13:35.453Z,0.00
2019-01-22T05:15:07.267Z,0.00
2019-01-22T05:16:39.085Z,0.00
2019-01-22T05:18:10.902Z,0.00
2019-01-22T05:19:42.717Z,0.00
2019-01-22T05:21:14.533Z,0.00
2019-01-22T05:22:46.349Z,0.00
2019-01-22T05:24:18.489Z,0.00
2019-01-22T05:25:49.981Z,0.00
2019-01-22T05:27:21.797Z,0.00
2019-01-22T05:28:53.713Z,0.00
2019-01-22T05:30:25.438Z,0.00
2019-01-22T05:31:57.245Z,0.00
2019-01-22T05:33:29.060Z,0.00
2019-01-22T05:35:00.881Z,0.00
2019-01-22T05:36:32.692Z,0.00
2019-01-22T05:38:04.510Z,0.00
2019-01-22T05:39:36.326Z,0.00
2019-01-22T05:41:08.141Z,0.00
2019-01-22T05:42:39.972Z,0.00
2019-01-22T05:44:11.788Z,0.00
2019-01-22T05:45:43.603Z,0.00
2019-01-22T05:47:15.520Z,0.00
2019-01-22T05:48:47.236Z,0.00
2019-01-22T05:50:19.052Z,0.00
2019-01-22T05:51:50.868Z,0.00
2019-01-22T05:53:22.682Z,0.00
2019-01-22T05:54:54.499Z,0.00
2019-01-22T05:56:26.314Z,0.00
2019-01-22T05:57:58.156Z,0.00
2019-01-22T05:59:29.946Z,0.00
2019-01-22T06:01:01.762Z,0.00
2019-01-22T06:02:33.579Z,0.00
2019-01-22T06:04:05.393Z,0.00
2019-01-22T06:05:37.312Z,0.00
2019-01-22T06:07:09.028Z,0.00
2019-01-22T06:08:40.841Z,0.00
2019-01-22T06:10:12.658Z,0.00
2019-01-22T06:11:44.472Z,0.00
2019-01-22T06:13:16.291Z,0.00
2019-01-22T06:14:48.646Z,0.00
2019-01-22T06:16:19.922Z,0.00
2019-01-22T06:17:51.836Z,0.00
2019-01-22T06:19:23.551Z,0.00
2019-01-22T06:20:55.381Z,0.00
2019-01-22T06:22:27.183Z,0.00
2019-01-22T06:23:59.099Z,0.00
2019-01-22T06:25:30.820Z,0.00
2019-01-22T06:27:02.630Z,0.00
2019-01-22T06:28:34.445Z,0.00
2019-01-22T06:30:06.361Z,0.00
2019-01-22T06:31:38.078Z,0.00
2019-01-22T06:33:09.892Z,0.00
2019-01-22T06:34:41.712Z,0.00
2019-01-22T06:36:13.527Z,0.00
2019-01-22T06:37:45.340Z,0.00
2019-01-22T06:39:17.154Z,0.00
2019-01-22T06:40:49.171Z,0.00
2019-01-22T06:42:21.035Z,0.00
2019-01-22T06:43:52.600Z,0.00
2019-01-22T06:45:24.416Z,0.00
2019-01-22T06:46:56.231Z,0.00
2019-01-22T06:48:28.147Z,0.00
2019-01-22T06:50:00.020Z,0.00
2019-01-22T06:51:31.680Z,0.00
2019-01-22T06:53:03.494Z,0.00
2019-01-22T06:54:39.612Z,0.00
2019-01-22T06:56:07.125Z,0.00
2019-01-22T06:57:38.941Z,0.00
2019-01-22T06:59:10.759Z,0.00
2019-01-22T07:00:42.973Z,0.00
2019-01-22T07:02:14.387Z,0.00
2019-01-22T07:03:46.203Z,0.00
2019-01-22T07:05:18.018Z,0.00
2019-01-22T07:06:49.834Z,0.00
2019-01-22T07:08:21.649Z,0.00
2019-01-22T07:09:53.466Z,0.00
2019-01-22T07:11:25.281Z,0.00
2019-01-22T07:12:57.202Z,0.00
2019-01-22T07:14:28.910Z,0.00
2019-01-22T07:16:00.727Z,0.00
2019-01-22T07:17:32.540Z,0.00
2019-01-22T07:19:04.457Z,0.00
2019-01-22T07:20:36.172Z,0.00
2019-01-22T07:22:07.987Z,0.00
2019-01-22T07:23:39.804Z,0.00
2019-01-22T07:25:11.618Z,0.00
2019-01-22T07:26:44.025Z,0.00
2019-01-22T07:28:15.253Z,0.00
2019-01-22T07:29:47.063Z,0.00
2019-01-22T07:31:18.878Z,0.00
2019-01-22T07:32:50.693Z,0.00
2019-01-22T07:34:22.513Z,0.00
2019-01-22T07:35:54.323Z,0.00
2019-01-22T07:37:26.239Z,0.00
2019-01-22T07:38:57.955Z,0.00
2019-01-22T07:40:29.820Z,0.00
2019-01-22T07:42:01.586Z,0.00
2019-01-22T07:43:33.501Z,0.00
2019-01-22T07:45:05.214Z,0.00
2019-01-22T07:46:37.030Z,0.00
2019-01-22T07:48:08.844Z,0.00
2019-01-22T07:49:40.659Z,0.00
2019-01-22T07:51:12.475Z,0.00
2019-01-22T07:52:44.290Z,0.00
2019-01-22T07:54:16.105Z,0.00
2019-01-22T07:57:19.836Z,0.00
2019-01-22T07:58:51.551Z,0.00
2019-01-22T08:00:23.366Z,0.00
2019-01-22T08:01:55.182Z,0.00
2019-01-22T08:03:27.301Z,0.00
2019-01-22T08:04:58.812Z,0.00
2019-01-22T08:06:30.627Z,0.00
2019-01-22T08:08:02.442Z,0.00
2019-01-22T08:09:34.257Z,0.00
2019-01-22T08:11:06.073Z,0.00
2019-01-22T08:12:37.888Z,0.00
2019-01-22T08:14:09.703Z,0.00
2019-01-22T08:15:41.623Z,0.00
2019-01-22T08:17:13.319Z,0.00
2019-01-22T08:18:45.139Z,0.00
2019-01-22T08:20:16.948Z,0.00
2019-01-22T08:23:20.579Z,0.00
2019-01-22T08:24:52.395Z,0.00
2019-01-22T08:26:24.253Z,0.00
2019-01-22T08:27:56.031Z,0.00
2019-01-22T08:29:27.849Z,0.00
2019-01-22T08:30:59.654Z,5.63
2019-01-22T08:32:31.469Z,5.63
2019-01-22T08:34:03.286Z,5.63
2019-01-22T08:35:35.505Z,11.25
2019-01-22T08:37:06.916Z,11.25
2019-01-22T08:38:38.730Z,16.88
2019-01-22T08:40:10.547Z,16.88
2019-01-22T08:41:42.361Z,22.50
2019-01-22T08:43:14.178Z,28.13
2019-01-22T08:44:45.992Z,28.13
2019-01-22T08:46:17.806Z,33.75
2019-01-22T08:47:49.623Z,39.38
2019-01-22T08:49:21.640Z,45.00
2019-01-22T08:50:53.252Z,45.00
2019-01-22T08:52:25.068Z,50.63
2019-01-22T08:53:57.066Z,56.25
2019-01-22T08:55:28.700Z,67.50
2019-01-22T08:57:00.515Z,84.38
2019-01-22T08:58:32.360Z,90.00
2019-01-22T09:00:04.144Z,90.00
2019-01-22T09:01:35.960Z,101.25
2019-01-22T09:03:07.775Z,95.63
2019-01-22T09:04:39.623Z,101.25
2019-01-22T09:06:11.410Z,106.88
2019-01-22T09:07:43.530Z,123.75
2019-01-22T09:09:15.811Z,123.75
2019-01-22T09:10:47.143Z,140.63
2019-01-22T09:12:19.138Z,140.63
2019-01-22T09:13:51.260Z,140.63
2019-01-22T09:15:23.116Z,129.38
2019-01-22T09:16:54.767Z,123.75
2019-01-22T09:18:26.296Z,112.50
2019-01-22T09:19:57.806Z,118.13
2019-01-22T09:21:29.582Z,118.13
2019-01-22T09:24:34.517Z,129.38
2019-01-22T09:26:06.451Z,135.00
2019-01-22T09:29:09.078Z,146.25
2019-01-22T09:30:40.684Z,146.25
2019-01-22T09:32:12.299Z,151.88
2019-01-22T09:35:15.964Z,163.13
2019-01-22T09:36:47.750Z,163.13
2019-01-22T09:38:20.102Z,168.75
2019-01-22T09:39:51.415Z,174.38
2019-01-22T09:41:24.110Z,180.00
2019-01-22T09:44:26.863Z,196.88
2019-01-22T09:45:58.862Z,258.75
2019-01-22T09:47:31.065Z,258.75
2019-01-22T09:49:02.608Z,236.25
2019-01-22T09:50:34.800Z,225.00
2019-01-22T09:52:06.556Z,236.25
2019-01-22T09:55:09.868Z,315.00
2019-01-22T09:56:41.916Z,320.63
2019-01-22T09:58:13.939Z,331.88
2019-01-22T09:59:45.022Z,337.50
2019-01-22T10:01:18.692Z,343.13
2019-01-22T10:02:49.326Z,354.38
2019-01-22T10:04:20.894Z,360.00
2019-01-22T10:05:52.592Z,365.63
2019-01-22T10:08:56.259Z,309.38
2019-01-22T10:10:28.787Z,348.75
2019-01-22T10:12:00.084Z,315.00
2019-01-22T10:13:31.424Z,326.25
2019-01-22T10:16:35.179Z,393.75
2019-01-22T10:18:06.893Z,354.38
2019-01-22T10:19:38.915Z,354.38
2019-01-22T10:21:11.240Z,354.38
2019-01-22T10:22:42.362Z,348.75
2019-01-22T10:24:14.679Z,360.00
2019-01-22T10:25:46.677Z,388.13
2019-01-22T10:27:17.823Z,382.50
2019-01-22T10:28:50.686Z,376.88
2019-01-22T10:30:22.066Z,405.00
2019-01-22T10:31:53.292Z,410.63
2019-01-22T10:36:29.457Z,495.00
2019-01-22T10:38:00.623Z,545.63
2019-01-22T10:39:32.511Z,495.00
2019-01-22T10:41:05.462Z,472.50
2019-01-22T10:42:36.043Z,500.63
2019-01-22T10:45:39.725Z,568.13
2019-01-22T10:47:12.077Z,551.25
2019-01-22T10:48:45.153Z,579.38
2019-01-22T10:50:16.059Z,562.50
2019-01-22T10:51:47.441Z,596.25
2019-01-22T10:53:18.802Z,613.13
2019-01-22T10:54:50.623Z,579.38
2019-01-22T10:56:22.696Z,635.63
2019-01-22T10:57:54.824Z,658.13
2019-01-22T10:59:26.288Z,658.13
2019-01-22T11:00:58.257Z,607.50
2019-01-22T11:04:01.573Z,703.13
2019-01-22T11:07:05.479Z,562.50
2019-01-22T11:08:37.035Z,511.88
2019-01-22T11:10:08.862Z,472.50
2019-01-22T11:11:40.686Z,478.13
2019-01-22T11:13:12.509Z,613.13
2019-01-22T11:14:44.535Z,528.75
2019-01-22T11:16:16.469Z,478.13
2019-01-22T11:17:48.184Z,444.38
2019-01-22T11:22:23.855Z,405.00
2019-01-22T11:23:55.273Z,495.00
2019-01-22T11:25:27.096Z,686.25
2019-01-22T11:26:58.919Z,731.25
2019-01-22T11:28:30.742Z,731.25
2019-01-22T11:30:02.573Z,736.88
2019-01-22T11:31:34.432Z,714.38
2019-01-22T11:33:08.431Z,731.25
2019-01-22T11:34:38.175Z,742.50
2019-01-22T11:36:10.472Z,736.88
2019-01-22T11:37:41.689Z,759.38
2019-01-22T11:39:13.717Z,736.88
2019-01-22T11:42:17.468Z,838.13
2019-01-22T11:43:49.283Z,798.75
2019-01-22T11:45:21.258Z,793.13
2019-01-22T11:46:53.140Z,894.38
2019-01-22T11:48:25.338Z,894.38
2019-01-22T11:49:56.739Z,855.00
2019-01-22T11:51:28.160Z,900.00
2019-01-22T11:53:00.489Z,939.38
2019-01-22T11:54:31.781Z,928.13
2019-01-22T11:56:03.609Z,933.75
2019-01-22T11:57:35.438Z,961.88
2019-01-22T11:59:07.476Z,939.38
2019-01-22T12:00:39.197Z,613.13
2019-01-22T12:03:42.749Z,1113.75
2019-01-22T12:06:46.610Z,787.50
2019-01-22T12:08:19.178Z,821.25
2019-01-22T12:09:50.102Z,1181.25
2019-01-22T12:11:21.898Z,1186.88
2019-01-22T12:12:53.924Z,776.25
2019-01-22T12:15:57.380Z,1389.38
2019-01-22T12:17:29.208Z,1366.88
2019-01-22T12:19:01.339Z,781.88
2019-01-22T12:20:33.069Z,646.88
2019-01-22T12:22:04.697Z,691.88
2019-01-22T12:23:36.723Z,1456.88
2019-01-22T12:25:08.882Z,1400.63
2019-01-22T12:29:43.829Z,1507.50
2019-01-22T12:31:15.657Z,1541.25
2019-01-22T12:34:19.942Z,1665.00
2019-01-22T12:35:51.934Z,956.25
2019-01-22T12:37:24.220Z,1665.00
2019-01-22T12:38:54.806Z,1665.00
2019-01-22T12:40:26.634Z,1693.13
2019-01-22T12:41:58.771Z,1468.13
2019-01-22T12:45:02.127Z,1687.50
2019-01-22T12:46:33.956Z,1760.63
2019-01-22T12:48:05.991Z,1839.38
2019-01-22T12:49:37.618Z,1800.00
2019-01-22T12:51:09.448Z,1732.50
2019-01-22T12:52:41.586Z,1006.88
2019-01-22T12:54:13.421Z,1642.50
2019-01-22T12:55:44.970Z,1861.88
2019-01-22T12:57:16.912Z,1929.38
2019-01-22T12:58:48.809Z,1901.25
2019-01-22T13:00:20.440Z,1811.25
2019-01-22T13:03:24.100Z,1839.38
2019-01-22T13:04:55.934Z,1822.50
2019-01-22T13:06:27.966Z,1822.50
2019-01-22T13:09:31.434Z,1856.25
2019-01-22T13:11:03.566Z,1895.63
2019-01-22T13:12:35.143Z,1946.25
2019-01-22T13:14:06.926Z,1918.13
2019-01-22T13:17:10.994Z,1985.63
2019-01-22T13:18:42.425Z,2036.25
2019-01-22T13:20:14.796Z,2126.25
2019-01-22T13:21:46.091Z,2154.38
2019-01-22T13:23:18.492Z,2171.25
2019-01-22T13:24:49.958Z,2216.25
2019-01-22T13:26:21.590Z,2216.25
2019-01-22T13:29:25.283Z,2250.00
2019-01-22T13:30:57.087Z,2148.75
2019-01-22T13:32:29.122Z,2165.63
2019-01-22T13:34:00.958Z,2362.50
2019-01-22T13:37:04.524Z,2548.13
2019-01-22T13:38:36.564Z,2497.50
2019-01-22T13:40:08.099Z,2463.75
2019-01-22T13:41:40.065Z,2430.00
2019-01-22T13:43:11.770Z,2317.50
2019-01-22T13:44:43.911Z,2340.00
2019-01-22T13:46:15.445Z,2295.00
2019-01-22T13:47:47.279Z,2446.88
2019-01-22T13:49:19.117Z,2486.25
2019-01-22T13:50:51.239Z,2565.00
2019-01-22T13:52:22.990Z,2666.25
2019-01-22T13:54:12.491Z,2711.25
2019-01-22T14:01:50.560Z,2902.50
2019-01-22T14:03:23.097Z,2863.13
2019-01-22T14:04:54.166Z,2863.13
2019-01-22T14:07:58.130Z,2986.88
2019-01-22T14:09:29.714Z,3093.75
2019-01-22T14:11:01.766Z,3088.13
2019-01-22T14:12:33.631Z,3166.88
2019-01-22T14:14:06.111Z,3397.50
2019-01-22T14:15:37.758Z,3335.63
2019-01-22T14:17:09.172Z,3211.88
2019-01-22T14:18:43.308Z,3273.75
2019-01-22T14:20:12.718Z,3285.00
2019-01-22T14:21:44.714Z,3363.75
2019-01-22T14:23:16.585Z,3442.50
2019-01-22T14:24:48.512Z,3386.25
2019-01-22T14:26:25.571Z,3273.75
2019-01-22T14:27:51.914Z,3330.00
2019-01-22T14:30:56.718Z,3375.00
2019-01-22T14:32:27.432Z,3459.38
2019-01-22T14:33:59.400Z,3397.50
2019-01-22T14:35:31.246Z,3571.88
2019-01-22T14:37:03.374Z,3566.25
2019-01-22T14:40:07.565Z,3172.50
2019-01-22T14:41:38.374Z,3031.88
2019-01-22T14:43:10.188Z,1428.75
2019-01-22T14:44:42.938Z,1119.38
2019-01-22T14:46:14.255Z,1035.00
2019-01-22T14:47:46.414Z,1119.38
2019-01-22T14:50:49.302Z,1158.75
2019-01-22T14:52:21.957Z,1113.75
2019-01-22T14:53:53.427Z,1158.75
2019-01-22T14:55:25.098Z,1305.00
2019-01-22T14:58:29.124Z,3493.13
2019-01-22T15:01:32.103Z,3600.00
2019-01-22T15:03:04.410Z,3487.50
2019-01-22T15:04:36.500Z,3566.25
2019-01-22T15:07:39.484Z,3605.63
2019-01-22T15:10:43.455Z,3448.13
2019-01-22T15:13:46.769Z,3465.00
2019-01-22T15:15:19.498Z,3594.38
2019-01-22T15:16:51.079Z,3571.88
2019-01-22T15:18:22.305Z,3600.00
2019-01-22T15:21:26.357Z,3656.25
2019-01-22T15:22:58.261Z,3735.00
2019-01-22T15:24:29.835Z,3757.50
2019-01-22T15:26:01.769Z,3825.00
2019-01-22T15:27:33.717Z,3706.88
2019-01-22T15:29:05.418Z,3763.13
2019-01-22T15:30:37.176Z,4038.75
2019-01-22T15:32:09.033Z,1518.75
2019-01-22T15:33:40.702Z,1389.38
2019-01-22T15:35:12.950Z,916.88
2019-01-22T15:36:44.547Z,900.00
2019-01-22T15:38:16.261Z,871.88
2019-01-22T15:39:48.274Z,838.13
2019-01-22T15:41:20.598Z,832.50
2019-01-22T15:42:51.660Z,832.50
2019-01-22T15:44:23.497Z,821.25
2019-01-22T15:45:55.602Z,855.00
2019-01-22T15:47:27.401Z,916.88
2019-01-22T15:48:59.874Z,916.88
2019-01-22T15:50:30.865Z,866.25
2019-01-22T15:52:02.943Z,866.25
2019-01-22T15:55:06.558Z,1051.88
2019-01-22T15:56:38.078Z,1333.13
2019-01-22T15:58:09.953Z,1215.00
2019-01-22T15:59:42.473Z,1181.25
2019-01-22T16:01:14.814Z,1113.75
2019-01-22T16:04:18.182Z,1012.50
2019-01-22T16:05:49.562Z,1012.50
2019-01-22T16:07:20.855Z,961.88
2019-01-22T16:08:53.434Z,933.75
2019-01-22T16:10:24.999Z,933.75
2019-01-22T16:11:56.464Z,961.88
2019-01-22T16:13:28.915Z,1035.00
2019-01-22T16:15:00.214Z,1186.88
2019-01-22T16:16:31.918Z,1293.75
2019-01-22T16:19:36.314Z,1473.75
2019-01-22T16:22:39.149Z,2801.25
2019-01-22T16:24:11.667Z,4275.00
2019-01-22T16:25:43.232Z,4404.38
2019-01-22T16:27:14.715Z,4111.88
2019-01-22T16:28:46.881Z,4263.75
2019-01-22T16:30:18.806Z,2964.38
2019-01-22T16:31:50.611Z,2115.00
2019-01-22T16:33:23.937Z,1327.50
2019-01-22T16:34:54.319Z,950.63
2019-01-22T16:36:26.005Z,894.38
2019-01-22T16:37:57.357Z,759.38
2019-01-22T16:39:30.855Z,680.63
2019-01-22T16:41:01.056Z,551.25
2019-01-22T16:44:05.235Z,528.75
2019-01-22T16:45:36.585Z,416.25
2019-01-22T16:47:08.313Z,405.00
2019-01-22T16:48:40.736Z,388.13
2019-01-22T16:50:12.280Z,376.88
2019-01-22T16:51:43.777Z,410.63
2019-01-22T16:53:15.869Z,540.00
2019-01-22T16:54:47.889Z,590.63
2019-01-22T16:56:19.783Z,551.25
2019-01-22T16:57:51.071Z,450.00
2019-01-22T16:59:24.221Z,382.50
2019-01-22T17:00:54.732Z,331.88
2019-01-22T17:02:27.061Z,348.75
2019-01-22T17:03:58.367Z,433.13
2019-01-22T17:05:30.391Z,483.75
2019-01-22T17:07:02.011Z,472.50
2019-01-22T17:08:34.327Z,410.63
2019-01-22T17:10:10.534Z,365.63
2019-01-22T17:11:37.830Z,348.75
2019-01-22T17:13:09.538Z,281.25
2019-01-22T17:16:13.643Z,258.75
2019-01-22T17:17:44.954Z,258.75
2019-01-22T17:19:16.901Z,253.13
2019-01-22T17:20:49.493Z,275.63
2019-01-22T17:22:20.518Z,258.75
2019-01-22T17:25:24.077Z,253.13
2019-01-22T17:26:55.691Z,270.00
2019-01-22T17:29:59.520Z,292.50
2019-01-22T17:31:31.189Z,326.25
2019-01-22T17:33:02.981Z,348.75
2019-01-22T17:34:34.798Z,360.00
2019-01-22T17:36:06.873Z,365.63
2019-01-22T17:37:38.978Z,360.00
2019-01-22T17:39:10.271Z,354.38
2019-01-22T17:40:42.559Z,354.38
2019-01-22T17:42:13.903Z,354.38
2019-01-22T17:43:46.868Z,343.13
2019-01-22T17:45:17.543Z,326.25
2019-01-22T17:46:49.366Z,315.00
2019-01-22T17:48:23.457Z,286.88
2019-01-22T17:49:53.009Z,286.88
2019-01-22T17:52:56.652Z,264.38
2019-01-22T17:54:28.474Z,303.75
2019-01-22T17:56:00.323Z,326.25
2019-01-22T17:57:32.113Z,309.38
2019-01-22T17:59:03.935Z,286.88
2019-01-22T18:00:35.787Z,247.50
2019-01-22T18:02:08.105Z,236.25
2019-01-22T18:03:39.396Z,253.13
2019-01-22T18:05:11.419Z,236.25
2019-01-22T18:06:43.542Z,213.75
2019-01-22T18:08:15.164Z,202.50
2019-01-22T18:11:18.702Z,185.63
2019-01-22T18:12:50.569Z,196.88
2019-01-22T18:14:22.671Z,219.38
2019-01-22T18:17:25.986Z,247.50
2019-01-22T18:18:57.614Z,247.50
2019-01-22T18:20:30.562Z,230.63
2019-01-22T18:25:05.516Z,343.13
2019-01-22T18:26:37.238Z,371.25
2019-01-22T18:28:08.724Z,393.75
2019-01-22T18:29:40.338Z,399.38
2019-01-22T18:32:44.661Z,405.00
2019-01-22T18:34:15.849Z,376.88
2019-01-22T18:35:47.923Z,382.50
2019-01-22T18:37:19.436Z,427.50
2019-01-22T18:38:51.713Z,455.63
2019-01-22T18:40:23.297Z,455.63
2019-01-22T18:41:55.188Z,286.88
2019-01-22T18:43:27.005Z,241.88
2019-01-22T18:44:59.045Z,241.88
2019-01-22T18:46:30.354Z,444.38
2019-01-22T18:49:33.994Z,720.00
2019-01-22T18:51:06.347Z,748.13
2019-01-22T18:52:37.635Z,736.88
2019-01-22T18:54:09.457Z,810.00
2019-01-22T18:55:41.477Z,922.50
2019-01-22T18:57:13.632Z,945.00
2019-01-22T18:58:44.920Z,945.00
2019-01-22T19:00:16.741Z,984.38
2019-01-22T19:01:48.563Z,1006.88
2019-01-22T19:03:20.583Z,1018.13
2019-01-22T19:04:52.203Z,1023.75
2019-01-22T19:06:24.227Z,1040.63
2019-01-22T19:07:55.848Z,1068.75
2019-01-22T19:09:27.672Z,1046.25
2019-01-22T19:12:31.733Z,1355.63
2019-01-22T19:14:03.466Z,1423.13
2019-01-22T19:15:35.268Z,1473.75
2019-01-22T19:17:06.784Z,1513.13
2019-01-22T19:18:39.602Z,1591.88
2019-01-22T19:20:10.433Z,1248.75
2019-01-22T19:21:42.685Z,1192.50
2019-01-22T19:23:14.858Z,736.88
2019-01-22T19:24:45.914Z,652.50
2019-01-22T19:26:17.909Z,675.00
2019-01-22T19:27:49.614Z,506.25
2019-01-22T19:29:21.677Z,421.88
2019-01-22T19:30:53.724Z,421.88
2019-01-22T19:32:25.371Z,472.50
2019-01-22T19:33:57.256Z,646.88
2019-01-22T19:35:28.720Z,1468.13
2019-01-22T19:37:00.609Z,1490.63
2019-01-22T19:40:04.275Z,1788.75
2019-01-22T19:41:36.254Z,1749.38
2019-01-22T19:43:08.276Z,1119.38
2019-01-22T19:47:43.371Z,371.25
2019-01-22T19:49:15.296Z,348.75
2019-01-22T19:50:47.248Z,320.63
2019-01-22T19:52:18.910Z,337.50
2019-01-22T19:53:50.528Z,348.75
2019-01-22T19:55:22.651Z,365.63
2019-01-22T19:56:54.194Z,365.63
2019-01-22T19:59:58.448Z,241.88
2019-01-22T20:01:29.631Z,196.88
2019-01-22T20:03:01.459Z,230.63
2019-01-22T20:04:33.356Z,309.38
2019-01-22T20:06:05.641Z,365.63
2019-01-22T20:07:36.961Z,371.25
2019-01-22T20:09:08.789Z,348.75
2019-01-22T20:10:40.855Z,343.13
2019-01-22T20:12:12.438Z,309.38
2019-01-22T20:13:44.190Z,258.75
2019-01-22T20:15:16.212Z,236.25
2019-01-22T20:18:19.774Z,241.88
2019-01-22T20:19:51.569Z,292.50
2019-01-22T20:24:27.271Z,371.25
2019-01-22T20:25:59.200Z,371.25
2019-01-22T20:27:30.654Z,343.13
2019-01-22T20:29:02.387Z,315.00
2019-01-22T20:30:34.208Z,286.88
2019-01-22T20:32:06.230Z,281.25
2019-01-22T20:33:37.847Z,281.25
2019-01-22T20:35:09.667Z,292.50
2019-01-22T20:36:41.688Z,320.63
2019-01-22T20:38:13.306Z,360.00
2019-01-22T20:39:45.125Z,399.38
2019-01-22T20:42:48.866Z,405.00
2019-01-22T20:45:52.607Z,331.88
2019-01-22T20:47:24.428Z,303.75
2019-01-22T20:48:56.049Z,292.50
2019-01-22T20:53:31.504Z,253.13
2019-01-22T20:55:03.326Z,258.75
2019-01-22T20:58:06.963Z,230.63
2019-01-22T20:59:38.955Z,225.00
2019-01-22T21:01:10.779Z,213.75
2019-01-22T21:02:43.320Z,202.50
2019-01-22T21:04:14.598Z,202.50
2019-01-22T21:05:46.186Z,196.88
2019-01-22T21:07:18.385Z,202.50
2019-01-22T21:08:49.734Z,202.50
2019-01-22T21:10:21.724Z,208.13
2019-01-22T21:11:53.359Z,208.13
2019-01-22T21:14:57.140Z,202.50
2019-01-22T21:16:28.862Z,196.88
2019-01-22T21:18:00.766Z,191.25
2019-01-22T21:19:32.587Z,180.00
2019-01-22T21:21:04.662Z,168.75
2019-01-22T21:24:07.971Z,151.88
2019-01-22T21:25:39.999Z,146.25